createdAt,value
2023-07-10T00:00:53.960Z,23.44
2023-07-10T00:03:20.478Z,23.44
2023-07-10T00:05:46.975Z,23.43
2023-07-10T00:08:13.402Z,23.43
2023-07-10T00:10:39.941Z,23.43
2023-07-10T00:13:06.502Z,23.43
2023-07-10T00:15:32.927Z,23.42
2023-07-10T00:17:59.308Z,23.41
2023-07-10T00:20:28.612Z,23.40
2023-07-10T00:22:55.359Z,23.38
2023-07-10T00:25:22.495Z,23.36
2023-07-10T00:27:50.380Z,23.34
2023-07-10T00:30:23.795Z,23.31
2023-07-10T00:32:53.639Z,23.30
2023-07-10T00:35:26.200Z,23.28
2023-07-10T00:38:02.790Z,23.22
2023-07-10T00:40:34.503Z,23.22
2023-07-10T00:43:05.865Z,23.19
2023-07-10T00:45:32.262Z,23.15
2023-07-10T00:48:06.817Z,23.13
2023-07-10T00:50:42.808Z,23.11
2023-07-10T00:53:18.681Z,23.11
2023-07-10T00:55:45.600Z,23.14
2023-07-10T00:58:30.218Z,23.15
2023-07-10T01:01:11.985Z,23.16
2023-07-10T01:03:42.750Z,23.16
2023-07-10T01:06:13.312Z,23.17
2023-07-10T01:08:42.669Z,23.18
2023-07-10T01:11:09.451Z,23.20
2023-07-10T01:13:40.239Z,23.22
2023-07-10T01:16:07.020Z,23.25
2023-07-10T01:18:34.412Z,23.25
2023-07-10T01:21:11.654Z,23.27
2023-07-10T01:23:38.144Z,23.28
2023-07-10T01:26:07.634Z,23.28
2023-07-10T01:28:37.868Z,23.27
2023-07-10T01:31:09.215Z,23.29
2023-07-10T01:33:41.123Z,23.29
2023-07-10T01:36:11.260Z,23.29
2023-07-10T01:38:43.963Z,23.30
2023-07-10T01:41:29.406Z,23.30
2023-07-10T01:43:55.851Z,23.27
2023-07-10T01:46:25.740Z,23.27
2023-07-10T01:48:55.148Z,23.24
2023-07-10T01:51:23.205Z,23.21
2023-07-10T01:53:49.693Z,23.21
2023-07-10T01:56:19.601Z,23.20
2023-07-10T01:58:46.029Z,23.19
2023-07-10T02:01:12.629Z,23.17
2023-07-10T02:03:39.311Z,23.14
2023-07-10T02:06:06.298Z,23.12
2023-07-10T02:08:32.877Z,23.09
2023-07-10T02:10:59.442Z,23.07
2023-07-10T02:13:26.099Z,23.06
2023-07-10T02:15:53.032Z,23.05
2023-07-10T02:18:19.700Z,23.03
2023-07-10T02:20:46.516Z,23.02
2023-07-10T02:23:13.252Z,23.00
2023-07-10T02:25:40.411Z,22.99
2023-07-10T02:28:07.349Z,22.95
2023-07-10T02:30:37.900Z,22.92
2023-07-10T02:33:08.701Z,22.88
2023-07-10T02:35:35.135Z,22.85
2023-07-10T02:38:01.673Z,22.80
2023-07-10T02:40:28.086Z,22.77
2023-07-10T02:42:54.494Z,22.76
2023-07-10T02:45:20.973Z,22.76
2023-07-10T02:47:47.556Z,22.74
2023-07-10T02:50:14.093Z,22.74
2023-07-10T02:52:40.549Z,22.73
2023-07-10T02:55:07.418Z,22.72
2023-07-10T02:57:33.940Z,22.73
2023-07-10T03:00:00.442Z,22.73
2023-07-10T03:02:27.025Z,22.74
2023-07-10T03:04:53.498Z,22.74
2023-07-10T03:07:20.020Z,22.73
2023-07-10T03:09:46.707Z,22.75
2023-07-10T03:12:13.190Z,22.75
2023-07-10T03:14:39.691Z,22.75
2023-07-10T03:17:06.261Z,22.75
2023-07-10T03:19:33.011Z,22.74
2023-07-10T03:21:59.465Z,22.75
2023-07-10T03:24:26.197Z,22.74
2023-07-10T03:26:52.678Z,22.71
2023-07-10T03:29:19.078Z,22.68
2023-07-10T03:31:45.639Z,22.66
2023-07-10T03:34:13.013Z,22.64
2023-07-10T03:36:40.664Z,22.63
2023-07-10T03:39:07.158Z,22.61
2023-07-10T03:41:34.651Z,22.59
2023-07-10T03:44:01.517Z,22.57
2023-07-10T03:46:28.410Z,22.56
2023-07-10T03:48:54.951Z,22.55
2023-07-10T03:51:21.631Z,22.53
2023-07-10T03:53:48.758Z,22.52
2023-07-10T03:56:15.625Z,22.50
2023-07-10T03:58:44.986Z,22.50
2023-07-10T04:01:12.468Z,22.49
2023-07-10T04:03:40.652Z,22.50
2023-07-10T04:06:09.215Z,22.50
2023-07-10T04:08:38.908Z,22.50
2023-07-10T04:11:07.870Z,22.49
2023-07-10T04:13:34.909Z,22.46
2023-07-10T04:16:07.796Z,22.45
2023-07-10T04:18:36.830Z,22.41
2023-07-10T04:21:06.214Z,22.39
2023-07-10T04:23:33.260Z,22.37
2023-07-10T04:25:59.906Z,22.36
2023-07-10T04:28:26.670Z,22.36
2023-07-10T04:30:54.489Z,22.36
2023-07-10T04:33:22.323Z,22.38
2023-07-10T04:35:59.135Z,22.41
2023-07-10T04:38:28.797Z,22.41
2023-07-10T04:40:56.570Z,22.42
2023-07-10T04:43:24.634Z,22.42
2023-07-10T04:45:53.084Z,22.42
2023-07-10T04:48:19.656Z,22.40
2023-07-10T04:50:48.218Z,22.40
2023-07-10T04:53:14.807Z,22.39
2023-07-10T04:55:41.398Z,22.38
2023-07-10T04:58:08.535Z,22.37
2023-07-10T05:00:35.896Z,22.39
2023-07-10T05:03:03.797Z,22.37
2023-07-10T05:05:30.720Z,22.39
2023-07-10T05:07:57.253Z,22.40
2023-07-10T05:10:23.849Z,22.41
2023-07-10T05:12:50.826Z,22.41
2023-07-10T05:15:17.557Z,22.43
2023-07-10T05:17:45.092Z,22.44
2023-07-10T05:20:11.678Z,22.45
2023-07-10T05:22:38.205Z,22.47
2023-07-10T05:25:05.174Z,22.50
2023-07-10T05:27:31.584Z,22.54
2023-07-10T05:29:57.984Z,22.61
2023-07-10T05:32:24.545Z,22.68
2023-07-10T05:34:51.087Z,22.75
2023-07-10T05:37:17.518Z,22.84
2023-07-10T05:39:44.070Z,22.89
2023-07-10T05:42:10.490Z,22.95
2023-07-10T05:44:36.950Z,23.00
2023-07-10T05:47:05.060Z,23.02
2023-07-10T05:49:32.627Z,23.05
2023-07-10T05:51:59.106Z,23.07
2023-07-10T05:54:25.542Z,23.07
2023-07-10T05:56:51.964Z,23.08
2023-07-10T05:59:18.503Z,23.09
2023-07-10T06:01:45.090Z,23.10
2023-07-10T06:04:11.656Z,23.14
2023-07-10T06:06:40.065Z,23.21
2023-07-10T06:09:06.521Z,23.31
2023-07-10T06:11:33.992Z,23.41
2023-07-10T06:14:00.427Z,23.53
2023-07-10T06:16:28.651Z,23.62
2023-07-10T06:18:55.296Z,23.71
2023-07-10T06:21:21.868Z,23.75
2023-07-10T06:23:48.380Z,23.77
2023-07-10T06:26:14.910Z,23.78
2023-07-10T06:28:41.349Z,23.77
2023-07-10T06:31:10.709Z,23.76
2023-07-10T06:33:38.643Z,23.74
2023-07-10T06:36:06.670Z,23.74
2023-07-10T06:38:33.817Z,23.74
2023-07-10T06:41:00.377Z,23.73
2023-07-10T06:43:26.923Z,23.72
2023-07-10T06:45:57.041Z,23.73
2023-07-10T06:48:24.188Z,23.72
2023-07-10T06:50:55.686Z,23.73
2023-07-10T06:53:27.075Z,23.75
2023-07-10T06:55:56.095Z,23.78
2023-07-10T06:58:22.903Z,23.82
2023-07-10T07:00:49.546Z,23.88
2023-07-10T07:03:16.156Z,23.93
2023-07-10T07:05:43.856Z,23.99
2023-07-10T07:08:11.507Z,24.04
2023-07-10T07:10:45.201Z,24.11
2023-07-10T07:13:13.664Z,24.18
2023-07-10T07:15:40.082Z,24.26
2023-07-10T07:18:06.690Z,24.34
2023-07-10T07:20:33.871Z,24.41
2023-07-10T07:23:00.401Z,24.48
2023-07-10T07:25:29.722Z,24.56
2023-07-10T07:28:00.267Z,24.64
2023-07-10T07:30:28.834Z,24.73
2023-07-10T07:32:55.429Z,24.81
2023-07-10T07:35:21.879Z,24.91
2023-07-10T07:37:48.331Z,25.00
2023-07-10T07:40:17.676Z,25.08
2023-07-10T07:42:46.442Z,25.17
2023-07-10T07:45:13.966Z,25.25
2023-07-10T07:47:42.236Z,25.30
2023-07-10T07:50:10.203Z,25.36
2023-07-10T07:52:36.668Z,25.39
2023-07-10T07:55:04.205Z,25.40
2023-07-10T07:57:30.735Z,25.43
2023-07-10T08:00:00.347Z,25.46
2023-07-10T08:02:27.221Z,25.48
2023-07-10T08:04:54.124Z,25.53
2023-07-10T08:07:20.693Z,25.59
2023-07-10T08:09:47.201Z,25.68
2023-07-10T08:12:13.660Z,25.76
2023-07-10T08:14:40.089Z,25.83
2023-07-10T08:17:06.880Z,25.92
2023-07-10T08:19:33.399Z,25.99
2023-07-10T08:21:59.964Z,26.05
2023-07-10T08:24:26.570Z,26.10
2023-07-10T08:26:52.989Z,26.12
2023-07-10T08:29:25.716Z,26.15
2023-07-10T08:31:57.744Z,26.19
2023-07-10T08:34:27.424Z,26.21
2023-07-10T08:36:54.276Z,26.23
2023-07-10T08:39:23.462Z,26.25
2023-07-10T08:41:55.664Z,26.26
2023-07-10T08:44:31.707Z,26.27
2023-07-10T08:47:01.001Z,26.25
2023-07-10T08:49:42.868Z,26.27
2023-07-10T08:52:12.659Z,26.28
2023-07-10T08:54:39.577Z,26.28
2023-07-10T08:57:30.680Z,26.30
2023-07-10T09:00:12.628Z,26.30
2023-07-10T09:02:43.750Z,26.30
2023-07-10T09:05:41.568Z,26.27
2023-07-10T09:08:14.648Z,26.25
2023-07-10T09:10:51.335Z,26.20
2023-07-10T09:13:21.978Z,26.16
2023-07-10T09:15:54.582Z,26.16
2023-07-10T09:18:29.632Z,26.15
2023-07-10T09:20:59.588Z,26.15
2023-07-10T09:23:30.057Z,26.16
2023-07-10T09:26:00.061Z,26.18
2023-07-10T09:28:27.539Z,26.21
2023-07-10T09:31:10.897Z,26.27
2023-07-10T09:33:42.633Z,26.31
2023-07-10T09:36:18.334Z,26.34
2023-07-10T09:38:46.515Z,26.36
2023-07-10T09:41:18.432Z,26.38
2023-07-10T09:44:09.646Z,26.43
2023-07-10T09:46:37.904Z,26.47
2023-07-10T09:49:14.808Z,26.54
2023-07-10T09:51:56.954Z,26.64
2023-07-10T09:54:24.373Z,26.70
2023-07-10T09:56:52.942Z,26.79
2023-07-10T09:59:26.817Z,26.85
2023-07-10T10:01:55.079Z,26.91
2023-07-10T10:04:24.012Z,26.98
2023-07-10T10:07:05.858Z,27.06
2023-07-10T10:09:33.487Z,27.14
2023-07-10T10:12:27.262Z,27.26
2023-07-10T10:15:16.398Z,27.38
2023-07-10T10:17:45.618Z,27.48
2023-07-10T10:20:21.913Z,27.57
2023-07-10T10:22:48.586Z,27.63
2023-07-10T10:25:17.244Z,27.67
2023-07-10T10:27:49.774Z,27.71
2023-07-10T10:30:27.004Z,27.74
2023-07-10T10:33:21.877Z,27.81
2023-07-10T10:35:58.630Z,27.87
2023-07-10T10:38:46.252Z,27.93
2023-07-10T10:41:33.936Z,27.97
2023-07-10T10:44:09.331Z,28.00
2023-07-10T10:46:50.429Z,28.04
2023-07-10T10:49:38.931Z,28.09
2023-07-10T10:52:35.001Z,28.14
2023-07-10T10:55:01.388Z,28.16
2023-07-10T10:57:49.570Z,28.20
2023-07-10T11:00:30.568Z,28.24
2023-07-10T11:03:33.528Z,28.29
2023-07-10T11:06:14.096Z,28.35
2023-07-10T11:08:48.680Z,28.40
2023-07-10T11:11:23.200Z,28.47
2023-07-10T11:13:50.568Z,28.51
2023-07-10T11:16:17.227Z,28.56
2023-07-10T11:18:43.857Z,28.60
2023-07-10T11:21:10.417Z,28.65
2023-07-10T11:23:42.584Z,28.72
2023-07-10T11:26:14.676Z,28.79
2023-07-10T11:31:35.921Z,28.95
2023-07-10T11:34:08.393Z,29.03
2023-07-10T11:36:34.791Z,29.10
2023-07-10T11:39:06.985Z,29.20
2023-07-10T11:41:38.083Z,29.27
2023-07-10T11:44:32.522Z,29.36
2023-07-10T11:46:59.186Z,29.40
2023-07-10T11:49:51.912Z,29.47
2023-07-10T11:52:18.340Z,29.53
2023-07-10T11:54:50.605Z,29.61
2023-07-10T11:57:24.256Z,29.66
2023-07-10T11:59:57.704Z,29.72
2023-07-10T12:02:50.355Z,29.77
2023-07-10T12:05:39.306Z,29.82
2023-07-10T12:08:08.711Z,29.85
2023-07-10T12:10:46.369Z,29.89
2023-07-10T12:13:25.022Z,29.93
2023-07-10T12:15:54.180Z,30.01
2023-07-10T12:18:30.455Z,30.08
2023-07-10T12:21:00.773Z,30.16
2023-07-10T12:23:27.258Z,30.22
2023-07-10T12:25:55.347Z,30.28
2023-07-10T12:28:28.555Z,30.34
2023-07-10T12:30:59.011Z,30.40
2023-07-10T12:33:49.883Z,30.49
2023-07-10T12:36:27.865Z,30.55
2023-07-10T12:38:58.084Z,30.61
2023-07-10T12:41:25.118Z,30.67
2023-07-10T12:43:54.601Z,30.72
2023-07-10T12:46:30.077Z,30.78
2023-07-10T12:49:13.685Z,30.83
2023-07-10T12:51:44.683Z,30.89
2023-07-10T12:54:46.951Z,30.92
2023-07-10T12:57:17.555Z,30.95
2023-07-10T12:59:46.200Z,30.96
2023-07-10T13:02:12.539Z,30.97
2023-07-10T13:04:41.004Z,30.98
2023-07-10T13:07:29.444Z,30.96
2023-07-10T13:09:59.991Z,30.91
2023-07-10T13:12:32.933Z,30.85
2023-07-10T13:15:00.898Z,30.76
2023-07-10T13:17:28.884Z,30.67
2023-07-10T13:20:08.559Z,30.56
2023-07-10T13:22:36.086Z,30.48
2023-07-10T13:25:06.394Z,30.42
2023-07-10T13:27:33.081Z,30.36
2023-07-10T13:29:59.518Z,30.33
2023-07-10T13:32:25.957Z,30.32
2023-07-10T13:34:52.528Z,30.36
2023-07-10T13:37:24.021Z,30.42
2023-07-10T13:39:52.301Z,30.52
2023-07-10T13:42:20.773Z,30.64
2023-07-10T13:44:48.688Z,30.78
2023-07-10T13:47:17.464Z,30.91
2023-07-10T13:49:45.257Z,31.02
2023-07-10T13:52:26.369Z,31.13
2023-07-10T13:54:54.603Z,31.18
2023-07-10T13:57:25.762Z,31.20
2023-07-10T13:59:54.435Z,31.18
2023-07-10T14:02:32.058Z,31.14
2023-07-10T14:05:00.586Z,31.11
2023-07-10T14:07:29.608Z,31.06
2023-07-10T14:09:59.413Z,31.00
2023-07-10T14:12:34.110Z,30.95
2023-07-10T14:15:02.507Z,30.89
2023-07-10T14:17:32.048Z,30.86
2023-07-10T14:19:59.041Z,30.81
2023-07-10T14:22:25.559Z,30.77
2023-07-10T14:24:52.081Z,30.74
2023-07-10T14:27:22.680Z,30.73
2023-07-10T14:29:50.164Z,30.74
2023-07-10T14:32:19.661Z,30.77
2023-07-10T14:34:46.592Z,30.85
2023-07-10T14:37:20.343Z,30.92
2023-07-10T14:39:48.324Z,30.96
2023-07-10T14:42:20.692Z,31.01
2023-07-10T14:44:48.392Z,31.04
2023-07-10T14:47:33.369Z,31.06
2023-07-10T14:50:05.320Z,31.09
2023-07-10T14:52:34.155Z,31.10
2023-07-10T14:55:04.377Z,31.13
2023-07-10T14:57:38.810Z,31.21
2023-07-10T15:00:13.657Z,31.27
2023-07-10T15:02:40.340Z,31.34
2023-07-10T15:05:07.158Z,31.41
2023-07-10T15:07:38.438Z,31.49
2023-07-10T15:10:25.002Z,31.58
2023-07-10T15:12:54.059Z,31.61
2023-07-10T15:15:20.562Z,31.64
2023-07-10T15:17:47.621Z,31.65
2023-07-10T15:20:18.062Z,31.65
2023-07-10T15:22:45.960Z,31.66
2023-07-10T15:25:19.131Z,31.69
2023-07-10T15:27:45.662Z,31.70
2023-07-10T15:30:13.439Z,31.69
2023-07-10T15:32:46.553Z,31.67
2023-07-10T15:35:19.410Z,31.62
2023-07-10T15:37:46.712Z,31.54
2023-07-10T15:40:28.961Z,31.43
2023-07-10T15:42:58.237Z,31.31
2023-07-10T15:45:29.249Z,31.18
2023-07-10T15:47:57.461Z,31.08
2023-07-10T15:50:24.824Z,30.97
2023-07-10T15:52:52.024Z,30.88
2023-07-10T15:55:25.910Z,30.82
2023-07-10T15:57:54.180Z,30.76
2023-07-10T16:00:23.862Z,30.75
2023-07-10T16:02:54.017Z,30.74
2023-07-10T16:05:22.709Z,30.77
2023-07-10T16:07:50.418Z,30.85
2023-07-10T16:10:17.388Z,30.93
2023-07-10T16:12:44.535Z,31.03
2023-07-10T16:15:19.537Z,31.13
2023-07-10T16:17:48.105Z,31.24
2023-07-10T16:20:17.246Z,31.36
2023-07-10T16:22:51.368Z,31.49
2023-07-10T16:25:18.103Z,31.62
2023-07-10T16:27:45.485Z,31.72
2023-07-10T16:30:22.850Z,31.79
2023-07-10T16:32:49.676Z,31.79
2023-07-10T16:35:24.467Z,31.79
2023-07-10T16:37:52.458Z,31.74
2023-07-10T16:40:23.225Z,31.64
2023-07-10T16:42:54.557Z,31.54
2023-07-10T16:45:23.473Z,31.41
2023-07-10T16:47:51.718Z,31.30
2023-07-10T16:50:21.313Z,31.28
2023-07-10T16:52:48.600Z,31.36
2023-07-10T16:55:17.931Z,31.54
2023-07-10T16:57:46.380Z,31.76
2023-07-10T17:00:18.696Z,32.07
2023-07-10T17:02:51.809Z,32.43
2023-07-10T17:05:18.319Z,32.79
2023-07-10T17:07:44.836Z,33.16
2023-07-10T17:10:12.648Z,33.57
2023-07-10T17:12:41.489Z,33.96
2023-07-10T17:15:14.919Z,34.35
2023-07-10T17:17:41.496Z,34.64
2023-07-10T17:20:19.614Z,34.90
2023-07-10T17:22:46.632Z,35.12
2023-07-10T17:25:17.792Z,35.29
2023-07-10T17:27:44.797Z,35.39
2023-07-10T17:30:18.873Z,35.50
2023-07-10T17:32:46.694Z,35.55
2023-07-10T17:35:17.982Z,35.60
2023-07-10T17:37:48.329Z,35.61
2023-07-10T17:40:15.548Z,35.60
2023-07-10T17:42:43.204Z,35.61
2023-07-10T17:45:20.405Z,35.66
2023-07-10T17:47:59.568Z,35.73
2023-07-10T17:50:26.013Z,35.87
2023-07-10T17:52:52.428Z,36.01
2023-07-10T17:55:21.193Z,36.18
2023-07-10T17:57:51.006Z,36.32
2023-07-10T18:00:18.632Z,36.41
2023-07-10T18:02:46.843Z,36.48
2023-07-10T18:05:15.799Z,36.53
2023-07-10T18:07:42.341Z,36.53
2023-07-10T18:10:10.539Z,36.52
2023-07-10T18:12:37.586Z,36.49
2023-07-10T18:15:22.036Z,36.50
2023-07-10T18:17:48.473Z,36.46
2023-07-10T18:20:17.702Z,36.42
2023-07-10T18:22:44.254Z,36.34
2023-07-10T18:25:18.715Z,36.20
2023-07-10T18:27:46.666Z,35.97
2023-07-10T18:30:15.110Z,35.67
2023-07-10T18:32:41.592Z,35.35
2023-07-10T18:35:14.591Z,35.05
2023-07-10T18:37:40.981Z,34.77
2023-07-10T18:40:08.140Z,34.53
2023-07-10T18:42:35.123Z,34.39
2023-07-10T18:45:01.667Z,34.29
2023-07-10T18:47:28.224Z,34.23
2023-07-10T18:49:54.651Z,34.19
2023-07-10T18:52:30.035Z,34.14
2023-07-10T18:54:56.551Z,34.05
2023-07-10T18:57:22.995Z,33.97
2023-07-10T18:59:49.467Z,33.87
2023-07-10T19:02:16.183Z,33.76
2023-07-10T19:04:42.617Z,33.64
2023-07-10T19:07:16.847Z,33.52
2023-07-10T19:09:45.426Z,33.36
2023-07-10T19:12:16.249Z,33.19
2023-07-10T19:14:44.468Z,33.01
2023-07-10T19:17:20.772Z,32.85
2023-07-10T19:19:51.772Z,32.67
2023-07-10T19:22:19.207Z,32.49
2023-07-10T19:24:46.152Z,32.33
2023-07-10T19:27:12.667Z,32.13
2023-07-10T19:29:40.356Z,31.90
2023-07-10T19:32:24.326Z,31.66
2023-07-10T19:34:52.588Z,31.45
2023-07-10T19:37:19.985Z,31.26
2023-07-10T19:39:46.734Z,31.07
2023-07-10T19:42:13.151Z,30.91
2023-07-10T19:44:54.582Z,30.74
2023-07-10T19:47:21.526Z,30.54
2023-07-10T19:49:49.358Z,30.35
2023-07-10T19:52:18.857Z,30.17
2023-07-10T19:54:45.302Z,30.01
2023-07-10T19:57:18.908Z,29.86
2023-07-10T19:59:45.649Z,29.69
2023-07-10T20:02:15.368Z,29.53
2023-07-10T20:04:41.930Z,29.36
2023-07-10T20:07:11.434Z,29.18
2023-07-10T20:09:38.145Z,29.02
2023-07-10T20:12:15.523Z,28.84
2023-07-10T20:14:41.929Z,28.68
2023-07-10T20:17:28.635Z,28.53
2023-07-10T20:19:55.288Z,28.39
2023-07-10T20:22:21.714Z,28.29
2023-07-10T20:24:48.176Z,28.20
2023-07-10T20:27:14.874Z,28.12
2023-07-10T20:29:41.284Z,28.06
2023-07-10T20:32:13.354Z,28.00
2023-07-10T20:34:47.117Z,27.95
2023-07-10T20:37:13.896Z,27.89
2023-07-10T20:39:40.363Z,27.84
2023-07-10T20:42:10.093Z,27.79
2023-07-10T20:44:36.534Z,27.72
2023-07-10T20:47:03.085Z,27.66
2023-07-10T20:49:29.574Z,27.60
2023-07-10T20:51:56.011Z,27.55
2023-07-10T20:54:23.787Z,27.47
2023-07-10T20:56:54.192Z,27.42
2023-07-10T20:59:29.191Z,27.36
2023-07-10T21:01:56.997Z,27.31
2023-07-10T21:04:23.888Z,27.27
2023-07-10T21:07:02.090Z,27.23
2023-07-10T21:09:28.499Z,27.17
2023-07-10T21:11:54.984Z,27.12
2023-07-10T21:14:21.585Z,27.07
2023-07-10T21:16:48.174Z,27.01
2023-07-10T21:19:28.763Z,26.95
2023-07-10T21:21:55.227Z,26.87
2023-07-10T21:24:23.335Z,26.81
2023-07-10T21:26:52.606Z,26.74
2023-07-10T21:29:19.008Z,26.68
2023-07-10T21:31:45.474Z,26.62
2023-07-10T21:34:14.434Z,26.56
2023-07-10T21:36:42.016Z,26.50
2023-07-10T21:39:09.009Z,26.46
2023-07-10T21:41:38.964Z,26.42
2023-07-10T21:44:21.207Z,26.37
2023-07-10T21:46:48.758Z,26.34
2023-07-10T21:49:16.074Z,26.27
2023-07-10T21:51:43.545Z,26.21
2023-07-10T21:54:10.810Z,26.16
2023-07-10T21:56:39.262Z,26.12
2023-07-10T21:59:15.318Z,26.06
2023-07-10T22:01:42.495Z,26.02
2023-07-10T22:04:10.805Z,25.98
2023-07-10T22:06:42.041Z,25.95
2023-07-10T22:09:08.627Z,25.91
2023-07-10T22:11:35.087Z,25.86
2023-07-10T22:14:01.574Z,25.82
2023-07-10T22:16:30.759Z,25.78
2023-07-10T22:19:06.250Z,25.74
2023-07-10T22:21:35.044Z,25.69
2023-07-10T22:24:03.310Z,25.62
2023-07-10T22:26:30.419Z,25.57
2023-07-10T22:28:57.394Z,25.51
2023-07-10T22:31:26.989Z,25.46
2023-07-10T22:33:56.348Z,25.39
2023-07-10T22:36:23.006Z,25.34
2023-07-10T22:38:49.681Z,25.29
2023-07-10T22:41:26.248Z,25.25
2023-07-10T22:43:56.688Z,25.19
2023-07-10T22:46:30.532Z,25.15
2023-07-10T22:48:58.759Z,25.08
2023-07-10T22:51:28.813Z,25.05
2023-07-10T22:53:55.211Z,24.99
2023-07-10T22:56:25.519Z,24.94
2023-07-10T22:58:52.852Z,24.88
2023-07-10T23:01:20.198Z,24.86
2023-07-10T23:03:48.832Z,24.80
2023-07-10T23:06:32.215Z,24.76
2023-07-10T23:08:59.841Z,24.70
2023-07-10T23:11:26.906Z,24.68
2023-07-10T23:13:53.590Z,24.62
2023-07-10T23:16:22.328Z,24.59
2023-07-10T23:18:57.735Z,24.53
2023-07-10T23:21:25.822Z,24.47
2023-07-10T23:23:52.999Z,24.44
2023-07-10T23:26:22.467Z,24.40
2023-07-10T23:28:49.145Z,24.35
2023-07-10T23:31:22.646Z,24.31
2023-07-10T23:33:50.692Z,24.27
2023-07-10T23:36:22.847Z,24.23
2023-07-10T23:38:49.370Z,24.17
2023-07-10T23:41:16.743Z,24.12
2023-07-10T23:43:43.599Z,24.06
2023-07-10T23:46:11.209Z,24.01
2023-07-10T23:48:38.100Z,23.95
2023-07-10T23:51:04.897Z,23.89
2023-07-10T23:53:32.076Z,23.84
2023-07-10T23:55:58.961Z,23.81
2023-07-10T23:58:25.556Z,23.76
